createdAt,value
2023-05-24T00:00:42.306Z,0.00
2023-05-24T00:01:41.444Z,0.00
2023-05-24T00:02:43.349Z,0.00
2023-05-24T00:03:41.589Z,0.00
2023-05-24T00:04:41.511Z,0.00
2023-05-24T00:05:41.394Z,0.00
2023-05-24T00:06:41.429Z,0.00
2023-05-24T00:07:41.394Z,0.00
2023-05-24T00:08:41.366Z,0.00
2023-05-24T00:09:41.352Z,0.00
2023-05-24T00:10:41.582Z,0.00
2023-05-24T00:11:41.362Z,0.00
2023-05-24T00:12:41.349Z,0.00
2023-05-24T00:13:41.331Z,0.00
2023-05-24T00:14:41.312Z,0.00
2023-05-24T00:15:41.323Z,0.00
2023-05-24T00:16:41.325Z,0.00
2023-05-24T00:17:41.708Z,0.00
2023-05-24T00:18:41.288Z,0.00
2023-05-24T00:19:41.251Z,0.00
2023-05-24T00:20:41.640Z,0.00
2023-05-24T00:21:41.220Z,0.00
2023-05-24T00:22:41.234Z,0.00
2023-05-24T00:23:41.199Z,0.00
2023-05-24T00:24:41.211Z,0.00
2023-05-24T00:25:41.216Z,0.00
2023-05-24T00:26:41.185Z,0.00
2023-05-24T00:27:41.165Z,0.00
2023-05-24T00:28:43.330Z,0.00
2023-05-24T00:29:41.136Z,0.00
2023-05-24T00:30:41.372Z,0.00
2023-05-24T00:31:41.195Z,0.00
2023-05-24T00:32:41.168Z,0.00
2023-05-24T00:33:41.106Z,0.00
2023-05-24T00:34:41.148Z,0.00
2023-05-24T00:35:41.106Z,0.00
2023-05-24T00:36:41.085Z,0.00
2023-05-24T00:37:41.060Z,0.00
2023-05-24T00:38:41.057Z,0.00
2023-05-24T00:39:41.041Z,0.00
2023-05-24T00:40:41.250Z,0.00
2023-05-24T00:41:41.004Z,0.00
2023-05-24T00:42:41.018Z,0.00
2023-05-24T00:43:40.996Z,0.00
2023-05-24T00:44:40.994Z,0.00
2023-05-24T00:45:41.707Z,0.00
2023-05-24T00:46:41.076Z,0.00
2023-05-24T00:47:41.003Z,0.00
2023-05-24T00:48:40.937Z,0.00
2023-05-24T00:49:40.939Z,0.00
2023-05-24T00:50:41.230Z,0.00
2023-05-24T00:51:40.935Z,0.00
2023-05-24T00:52:40.906Z,0.00
2023-05-24T00:53:40.901Z,0.00
2023-05-24T00:54:40.889Z,0.00
2023-05-24T00:55:40.900Z,0.00
2023-05-24T00:56:40.850Z,0.00
2023-05-24T00:57:40.861Z,0.00
2023-05-24T00:58:40.852Z,0.00
2023-05-24T00:59:40.837Z,0.00
2023-05-24T01:00:41.055Z,0.00
2023-05-24T01:01:40.871Z,0.00
2023-05-24T01:02:41.002Z,0.00
2023-05-24T01:03:40.875Z,0.00
2023-05-24T01:04:40.790Z,0.00
2023-05-24T01:05:41.722Z,0.00
2023-05-24T01:06:40.776Z,0.00
2023-05-24T01:07:40.793Z,0.00
2023-05-24T01:08:40.752Z,0.00
2023-05-24T01:09:40.796Z,0.00
2023-05-24T01:10:40.977Z,0.00
2023-05-24T01:11:40.719Z,0.00
2023-05-24T01:12:40.697Z,0.00
2023-05-24T01:13:40.714Z,0.00
2023-05-24T01:14:40.677Z,0.00
2023-05-24T01:15:40.697Z,0.00
2023-05-24T01:16:40.723Z,0.00
2023-05-24T01:17:40.676Z,0.00
2023-05-24T01:18:40.647Z,0.00
2023-05-24T01:19:40.638Z,0.00
2023-05-24T01:20:40.937Z,0.00
2023-05-24T01:21:40.640Z,0.00
2023-05-24T01:22:40.605Z,0.00
2023-05-24T01:23:40.624Z,0.00
2023-05-24T01:24:40.569Z,0.00
2023-05-24T01:25:40.571Z,0.00
2023-05-24T01:26:40.538Z,0.00
2023-05-24T01:27:40.549Z,0.00
2023-05-24T01:28:40.555Z,0.00
2023-05-24T01:29:40.537Z,0.00
2023-05-24T01:30:40.685Z,0.00
2023-05-24T01:31:40.523Z,0.00
2023-05-24T01:32:40.523Z,0.00
2023-05-24T01:33:40.531Z,0.00
2023-05-24T01:34:40.462Z,0.00
2023-05-24T01:35:40.528Z,0.00
2023-05-24T01:36:40.442Z,0.00
2023-05-24T01:37:41.384Z,0.00
2023-05-24T01:38:40.445Z,0.00
2023-05-24T01:39:40.414Z,0.00
2023-05-24T01:40:42.096Z,0.00
2023-05-24T01:41:40.620Z,0.00
2023-05-24T01:42:40.394Z,0.00
2023-05-24T01:43:40.406Z,0.00
2023-05-24T01:44:40.388Z,0.00
2023-05-24T01:45:40.350Z,0.00
2023-05-24T01:46:40.880Z,0.00
2023-05-24T01:47:40.356Z,0.00
2023-05-24T01:48:40.317Z,0.00
2023-05-24T01:49:40.342Z,0.00
2023-05-24T01:50:45.703Z,0.00
2023-05-24T01:51:40.351Z,0.00
2023-05-24T01:52:40.275Z,0.00
2023-05-24T01:53:40.272Z,0.00
2023-05-24T01:54:40.356Z,0.00
2023-05-24T01:55:40.277Z,0.00
2023-05-24T01:56:40.224Z,0.00
2023-05-24T01:57:40.226Z,0.00
2023-05-24T01:58:40.206Z,0.00
2023-05-24T01:59:40.234Z,0.00
2023-05-24T02:00:40.272Z,0.00
2023-05-24T02:01:40.237Z,0.00
2023-05-24T02:02:40.312Z,0.00
2023-05-24T02:03:40.165Z,0.00
2023-05-24T02:04:40.164Z,0.00
2023-05-24T02:05:40.187Z,0.00
2023-05-24T02:06:40.117Z,0.00
2023-05-24T02:07:40.126Z,0.00
2023-05-24T02:08:40.124Z,0.00
2023-05-24T02:09:40.100Z,0.00
2023-05-24T02:10:40.154Z,0.00
2023-05-24T02:11:40.072Z,0.00
2023-05-24T02:12:40.060Z,0.00
2023-05-24T02:13:40.062Z,0.00
2023-05-24T02:14:40.067Z,0.00
2023-05-24T02:15:40.043Z,0.00
2023-05-24T02:16:40.073Z,0.00
2023-05-24T02:17:40.043Z,0.00
2023-05-24T02:18:40.005Z,0.00
2023-05-24T02:19:40.005Z,0.00
2023-05-24T02:20:40.077Z,0.00
2023-05-24T02:21:40.016Z,0.00
2023-05-24T02:22:39.954Z,0.00
2023-05-24T02:23:39.968Z,0.00
2023-05-24T02:24:39.882Z,1.00
2023-05-24T02:25:39.939Z,0.00
2023-05-24T02:26:39.945Z,0.00
2023-05-24T02:27:39.882Z,1.00
2023-05-24T02:28:39.843Z,1.00
2023-05-24T02:29:39.837Z,1.00
2023-05-24T02:30:40.154Z,0.00
2023-05-24T02:31:39.954Z,0.00
2023-05-24T02:32:39.877Z,0.00
2023-05-24T02:33:39.812Z,2.00
2023-05-24T02:34:39.784Z,1.00
2023-05-24T02:35:39.794Z,1.00
2023-05-24T02:36:39.773Z,1.00
2023-05-24T02:37:39.753Z,2.00
2023-05-24T02:38:39.742Z,2.00
2023-05-24T02:39:39.735Z,1.00
2023-05-24T02:40:39.776Z,5.00
2023-05-24T02:41:39.745Z,4.00
2023-05-24T02:42:39.696Z,3.00
2023-05-24T02:43:39.704Z,7.00
2023-05-24T02:44:39.685Z,6.00
2023-05-24T02:45:39.675Z,6.00
2023-05-24T02:46:39.839Z,8.00
2023-05-24T02:47:40.180Z,7.00
2023-05-24T02:48:39.638Z,7.00
2023-05-24T02:49:39.634Z,5.00
2023-05-24T02:50:39.605Z,10.00
2023-05-24T02:51:40.756Z,11.00
2023-05-24T02:52:40.115Z,10.00
2023-05-24T02:53:39.795Z,12.00
2023-05-24T02:54:39.570Z,14.00
2023-05-24T02:55:39.579Z,17.00
2023-05-24T02:56:40.439Z,14.00
2023-05-24T02:57:40.084Z,16.00
2023-05-24T02:58:39.521Z,15.00
2023-05-24T02:59:39.529Z,22.00
2023-05-24T03:00:39.530Z,22.00
2023-05-24T03:01:39.568Z,22.00
2023-05-24T03:02:39.958Z,24.00
2023-05-24T03:03:39.558Z,24.00
2023-05-24T03:04:39.452Z,27.00
2023-05-24T03:05:39.469Z,33.00
2023-05-24T03:06:39.465Z,32.00
2023-05-24T03:07:39.468Z,33.00
2023-05-24T03:08:39.418Z,37.00
2023-05-24T03:09:39.436Z,37.00
2023-05-24T03:10:39.389Z,33.00
2023-05-24T03:11:39.404Z,43.00
2023-05-24T03:12:39.402Z,42.00
2023-05-24T03:13:39.377Z,46.00
2023-05-24T03:14:39.378Z,46.00
2023-05-24T03:15:39.360Z,42.00
2023-05-24T03:16:39.355Z,43.00
2023-05-24T03:17:39.337Z,47.00
2023-05-24T03:18:39.393Z,49.00
2023-05-24T03:19:39.330Z,58.00
2023-05-24T03:20:39.380Z,63.00
2023-05-24T03:21:39.327Z,68.00
2023-05-24T03:22:39.295Z,62.00
2023-05-24T03:23:39.265Z,61.00
2023-05-24T03:24:39.280Z,67.00
2023-05-24T03:25:39.267Z,70.00
2023-05-24T03:26:39.240Z,82.00
2023-05-24T03:27:39.222Z,81.00
2023-05-24T03:28:39.231Z,88.00
2023-05-24T03:29:39.242Z,97.00
2023-05-24T03:30:39.192Z,92.00
2023-05-24T03:31:39.198Z,98.00
2023-05-24T03:32:39.220Z,96.00
2023-05-24T03:33:39.196Z,100.00
2023-05-24T03:34:39.164Z,118.00
2023-05-24T03:35:39.200Z,128.00
2023-05-24T03:36:39.197Z,129.00
2023-05-24T03:37:39.127Z,136.00
2023-05-24T03:38:39.116Z,133.00
2023-05-24T03:39:39.121Z,128.00
2023-05-24T03:40:39.294Z,135.00
2023-05-24T03:41:39.139Z,142.00
2023-05-24T03:42:39.072Z,146.00
2023-05-24T03:43:39.079Z,156.00
2023-05-24T03:44:39.041Z,168.00
2023-05-24T03:45:40.175Z,185.00
2023-05-24T03:46:39.042Z,194.00
2023-05-24T03:47:39.054Z,185.00
2023-05-24T03:48:39.010Z,186.00
2023-05-24T03:49:39.014Z,190.00
2023-05-24T03:50:39.008Z,197.00
2023-05-24T03:51:38.973Z,209.00
2023-05-24T03:52:38.967Z,205.00
2023-05-24T03:53:38.974Z,223.00
2023-05-24T03:54:38.948Z,260.00
2023-05-24T03:55:38.968Z,285.00
2023-05-24T03:56:38.944Z,282.00
2023-05-24T03:57:38.921Z,278.00
2023-05-24T03:58:38.909Z,310.00
2023-05-24T03:59:41.073Z,341.00
2023-05-24T04:00:38.905Z,360.00
2023-05-24T04:01:38.867Z,373.00
2023-05-24T04:02:39.027Z,389.00
2023-05-24T04:03:38.903Z,380.00
2023-05-24T04:04:38.834Z,360.00
2023-05-24T04:05:38.827Z,360.00
2023-05-24T04:06:38.814Z,362.00
2023-05-24T04:07:38.814Z,383.00
2023-05-24T04:08:38.808Z,388.00
2023-05-24T04:09:38.787Z,412.00
2023-05-24T04:10:38.772Z,432.00
2023-05-24T04:11:38.782Z,482.00
2023-05-24T04:12:38.744Z,539.00
2023-05-24T04:13:39.468Z,671.00
2023-05-24T04:14:38.728Z,736.00
2023-05-24T04:15:38.741Z,749.00
2023-05-24T04:16:38.724Z,747.00
2023-05-24T04:17:38.935Z,859.00
2023-05-24T04:18:39.985Z,939.00
2023-05-24T04:19:38.682Z,1005.00
2023-05-24T04:20:38.705Z,1001.00
2023-05-24T04:21:38.664Z,905.00
2023-05-24T04:22:38.643Z,776.00
2023-05-24T04:23:38.660Z,745.00
2023-05-24T04:24:39.174Z,827.00
2023-05-24T04:25:38.616Z,760.00
2023-05-24T04:26:38.604Z,719.00
2023-05-24T04:27:38.618Z,711.00
2023-05-24T04:28:38.575Z,718.00
2023-05-24T04:29:38.594Z,777.00
2023-05-24T04:30:38.587Z,800.00
2023-05-24T04:31:38.586Z,858.00
2023-05-24T04:32:38.612Z,939.00
2023-05-24T04:33:38.533Z,1006.00
2023-05-24T04:34:38.810Z,1037.00
2023-05-24T04:35:38.552Z,1111.00
2023-05-24T04:36:38.491Z,1118.00
2023-05-24T04:37:38.495Z,1114.00
2023-05-24T04:38:38.470Z,1129.00
2023-05-24T04:39:38.482Z,1151.00
2023-05-24T04:40:38.492Z,1099.00
2023-05-24T04:41:38.455Z,1087.00
2023-05-24T04:42:38.484Z,1114.00
2023-05-24T04:43:38.466Z,1110.00
2023-05-24T04:44:38.411Z,1177.00
2023-05-24T04:45:38.438Z,1243.00
2023-05-24T04:46:38.457Z,1368.00
2023-05-24T04:47:38.412Z,1342.00
2023-05-24T04:48:38.369Z,1014.00
2023-05-24T04:49:38.375Z,1127.00
2023-05-24T04:50:38.396Z,1224.00
2023-05-24T04:51:38.387Z,1224.00
2023-05-24T04:52:38.319Z,1194.00
2023-05-24T04:53:38.356Z,1216.00
2023-05-24T04:54:38.334Z,1313.00
2023-05-24T04:55:38.341Z,1372.00
2023-05-24T04:56:38.330Z,1407.00
2023-05-24T04:57:38.299Z,1442.00
2023-05-24T04:58:39.409Z,1428.00
2023-05-24T04:59:38.263Z,1400.00
2023-05-24T05:00:38.925Z,1380.00
2023-05-24T05:01:38.313Z,1342.00
2023-05-24T05:02:38.336Z,1350.00
2023-05-24T05:03:38.305Z,1415.00
2023-05-24T05:04:38.211Z,1478.00
2023-05-24T05:05:38.727Z,1496.00
2023-05-24T05:06:38.218Z,1504.00
2023-05-24T05:07:38.159Z,1486.00
2023-05-24T05:08:38.172Z,1464.00
2023-05-24T05:09:38.152Z,1424.00
2023-05-24T05:10:40.000Z,1431.00
2023-05-24T05:11:38.149Z,1439.00
2023-05-24T05:12:38.171Z,1435.00
2023-05-24T05:13:38.103Z,1417.00
2023-05-24T05:14:38.101Z,1360.00
2023-05-24T05:15:38.087Z,1370.00
2023-05-24T05:16:38.105Z,1489.00
2023-05-24T05:17:39.163Z,1580.00
2023-05-24T05:18:38.058Z,1683.00
2023-05-24T05:19:38.031Z,1709.00
2023-05-24T05:20:38.218Z,1632.00
2023-05-24T05:21:38.036Z,1647.00
2023-05-24T05:22:38.084Z,1676.00
2023-05-24T05:23:38.004Z,1896.00
2023-05-24T05:24:37.990Z,2072.00
2023-05-24T05:25:37.966Z,2169.00
2023-05-24T05:26:37.976Z,2174.00
2023-05-24T05:27:37.981Z,2133.00
2023-05-24T05:28:37.953Z,2079.00
2023-05-24T05:29:37.943Z,2023.00
2023-05-24T05:30:37.940Z,1969.00
2023-05-24T05:31:37.908Z,1962.00
2023-05-24T05:32:38.048Z,1895.00
2023-05-24T05:33:37.921Z,1899.00
2023-05-24T05:34:37.910Z,1901.00
2023-05-24T05:35:37.878Z,1937.00
2023-05-24T05:36:37.874Z,2037.00
2023-05-24T05:37:37.873Z,2215.00
2023-05-24T05:38:37.854Z,2426.00
2023-05-24T05:39:37.846Z,2613.00
2023-05-24T05:40:37.846Z,2769.00
2023-05-24T05:41:37.818Z,2668.00
2023-05-24T05:42:37.816Z,2307.00
2023-05-24T05:43:37.817Z,2416.00
2023-05-24T05:44:37.796Z,2439.00
2023-05-24T05:45:37.761Z,2423.00
2023-05-24T05:46:37.779Z,2453.00
2023-05-24T05:47:38.240Z,2455.00
2023-05-24T05:48:37.750Z,2342.00
2023-05-24T05:49:37.962Z,2379.00
2023-05-24T05:50:39.455Z,2364.00
2023-05-24T05:51:38.356Z,2352.00
2023-05-24T05:52:37.744Z,2420.00
2023-05-24T05:53:38.375Z,2501.00
2023-05-24T05:54:38.486Z,2516.00
2023-05-24T05:55:38.379Z,2400.00
2023-05-24T05:56:37.668Z,2470.00
2023-05-24T05:57:39.236Z,2400.00
2023-05-24T05:58:37.648Z,2433.00
2023-05-24T05:59:38.728Z,2679.00
2023-05-24T06:00:37.772Z,2567.00
2023-05-24T06:01:39.056Z,2223.00
2023-05-24T06:02:37.937Z,2380.00
2023-05-24T06:03:39.263Z,2602.00
2023-05-24T06:04:39.335Z,2583.00
2023-05-24T06:05:37.548Z,2348.00
2023-05-24T06:06:37.586Z,2369.00
2023-05-24T06:07:39.121Z,2592.00
2023-05-24T06:08:38.503Z,2454.00
2023-05-24T06:09:37.529Z,2457.00
2023-05-24T06:10:37.583Z,2530.00
2023-05-24T06:11:37.548Z,2577.00
2023-05-24T06:12:37.508Z,2554.00
2023-05-24T06:13:38.491Z,2518.00
2023-05-24T06:14:37.481Z,2478.00
2023-05-24T06:15:37.442Z,2378.00
2023-05-24T06:16:37.527Z,2362.00
2023-05-24T06:17:37.572Z,2427.00
2023-05-24T06:18:37.433Z,2395.00
2023-05-24T06:19:38.120Z,2423.00
2023-05-24T06:20:37.524Z,2534.00
2023-05-24T06:21:37.388Z,2573.00
2023-05-24T06:22:37.404Z,2579.00
2023-05-24T06:23:37.357Z,2545.00
2023-05-24T06:24:37.358Z,2564.00
2023-05-24T06:25:37.339Z,2528.00
2023-05-24T06:26:37.399Z,2520.00
2023-05-24T06:27:37.329Z,2530.00
2023-05-24T06:28:37.353Z,2529.00
2023-05-24T06:29:37.451Z,2697.00
2023-05-24T06:30:37.404Z,2812.00
2023-05-24T06:31:37.337Z,3094.00
2023-05-24T06:32:37.376Z,3349.00
2023-05-24T06:33:38.275Z,3505.00
2023-05-24T06:34:41.292Z,3470.00
2023-05-24T06:35:37.244Z,3462.00
2023-05-24T06:36:37.249Z,3311.00
2023-05-24T06:37:37.221Z,3243.00
2023-05-24T06:38:37.233Z,3241.00
2023-05-24T06:39:37.227Z,3388.00
2023-05-24T06:40:37.216Z,3597.00
2023-05-24T06:41:37.193Z,3629.00
2023-05-24T06:42:37.181Z,3571.00
2023-05-24T06:43:37.179Z,3540.00
2023-05-24T06:44:37.203Z,3505.00
2023-05-24T06:45:37.152Z,3461.00
2023-05-24T06:46:37.162Z,3438.00
2023-05-24T06:47:37.236Z,3426.00
2023-05-24T06:48:37.186Z,3369.00
2023-05-24T06:49:37.124Z,3291.00
2023-05-24T06:50:37.522Z,3248.00
2023-05-24T06:51:37.075Z,3248.00
2023-05-24T06:52:37.055Z,3377.00
2023-05-24T06:53:37.049Z,3419.00
2023-05-24T06:54:37.062Z,3529.00
2023-05-24T06:55:37.024Z,3619.00
2023-05-24T06:56:37.027Z,3649.00
2023-05-24T06:57:37.023Z,3547.00
2023-05-24T06:58:37.032Z,3508.00
2023-05-24T06:59:36.989Z,3474.00
2023-05-24T07:00:36.994Z,3462.00
2023-05-24T07:01:36.986Z,3502.00
2023-05-24T07:02:36.982Z,3591.00
2023-05-24T07:03:36.949Z,3508.00
2023-05-24T07:04:37.002Z,3687.00
2023-05-24T07:05:36.963Z,3926.00
2023-05-24T07:06:36.932Z,3710.00
2023-05-24T07:07:36.896Z,3734.00
2023-05-24T07:08:36.916Z,3486.00
2023-05-24T07:09:36.876Z,3679.00
2023-05-24T07:10:36.899Z,3376.00
2023-05-24T07:11:36.889Z,3414.00
2023-05-24T07:12:36.857Z,3362.00
2023-05-24T07:13:36.868Z,3240.00
2023-05-24T07:14:36.832Z,3746.00
2023-05-24T07:15:36.875Z,3806.00
2023-05-24T07:16:36.868Z,3525.00
2023-05-24T07:17:36.810Z,3392.00
2023-05-24T07:18:36.821Z,3948.00
2023-05-24T07:19:36.789Z,4198.00
2023-05-24T07:20:36.828Z,4547.00
2023-05-24T07:21:36.790Z,4770.00
2023-05-24T07:22:36.760Z,5011.00
2023-05-24T07:23:38.398Z,5064.00
2023-05-24T07:24:36.762Z,5196.00
2023-05-24T07:25:36.727Z,5078.00
2023-05-24T07:26:36.761Z,4843.00
2023-05-24T07:27:40.093Z,4818.00
2023-05-24T07:28:36.696Z,4688.00
2023-05-24T07:29:36.674Z,4763.00
2023-05-24T07:30:36.657Z,4782.00
2023-05-24T07:31:36.656Z,5013.00
2023-05-24T07:32:36.773Z,5235.00
2023-05-24T07:33:36.758Z,5374.00
2023-05-24T07:34:36.623Z,5287.00
2023-05-24T07:35:36.609Z,5201.00
2023-05-24T07:36:36.600Z,4937.00
2023-05-24T07:37:36.591Z,4837.00
2023-05-24T07:38:36.631Z,4694.00
2023-05-24T07:39:36.593Z,4791.00
2023-05-24T07:40:36.584Z,4894.00
2023-05-24T07:41:36.537Z,4944.00
2023-05-24T07:42:36.534Z,4847.00
2023-05-24T07:43:36.551Z,4647.00
2023-05-24T07:44:36.513Z,4867.00
2023-05-24T07:45:36.508Z,4902.00
2023-05-24T07:46:36.558Z,4517.00
2023-05-24T07:47:36.518Z,4464.00
2023-05-24T07:48:36.502Z,4522.00
2023-05-24T07:49:36.469Z,4636.00
2023-05-24T07:50:36.472Z,4648.00
2023-05-24T07:51:36.433Z,4556.00
2023-05-24T07:52:36.438Z,4584.00
2023-05-24T07:53:37.485Z,4410.00
2023-05-24T07:54:36.414Z,4270.00
2023-05-24T07:55:36.404Z,4467.00
2023-05-24T07:56:36.396Z,4592.00
2023-05-24T07:57:36.383Z,4931.00
2023-05-24T07:58:36.411Z,5243.00
2023-05-24T07:59:36.403Z,5516.00
2023-05-24T08:00:36.341Z,5601.00
2023-05-24T08:01:37.119Z,5761.00
2023-05-24T08:02:36.376Z,5812.00
2023-05-24T08:03:36.413Z,6009.00
2023-05-24T08:04:36.336Z,6090.00
2023-05-24T08:05:36.297Z,5974.00
2023-05-24T08:06:36.335Z,5945.00
2023-05-24T08:07:37.021Z,5864.00
2023-05-24T08:08:36.262Z,5661.00
2023-05-24T08:09:36.345Z,5222.00
2023-05-24T08:10:37.794Z,5635.00
2023-05-24T08:11:36.227Z,5403.00
2023-05-24T08:12:37.030Z,5624.00
2023-05-24T08:13:36.191Z,5806.00
2023-05-24T08:14:37.770Z,6003.00
2023-05-24T08:15:36.209Z,6233.00
2023-05-24T08:16:36.869Z,6191.00
2023-05-24T08:17:36.199Z,6074.00
2023-05-24T08:18:36.848Z,5727.00
2023-05-24T08:19:36.767Z,5306.00
2023-05-24T08:20:36.345Z,4550.00
2023-05-24T08:42:09.866Z,4728.00
2023-05-24T08:43:05.988Z,4821.00
2023-05-24T08:44:05.975Z,4881.00
2023-05-24T08:45:05.976Z,4628.00
2023-05-24T08:46:06.022Z,4253.00
2023-05-24T08:47:05.976Z,4229.00
2023-05-24T08:48:05.979Z,4722.00
2023-05-24T08:49:06.624Z,4921.00
2023-05-24T08:50:05.901Z,4827.00
2023-05-24T08:51:05.911Z,4450.00
2023-05-24T08:52:06.042Z,4593.00
2023-05-24T08:53:05.887Z,4948.00
2023-05-24T08:54:05.869Z,5039.00
2023-05-24T08:55:05.906Z,5201.00
2023-05-24T08:56:05.835Z,5379.00
2023-05-24T08:57:05.865Z,5423.00
2023-05-24T08:58:06.775Z,5144.00
2023-05-24T08:59:06.361Z,4876.00
2023-05-24T09:00:05.816Z,5338.00
2023-05-24T09:01:07.432Z,5726.00
2023-05-24T09:02:06.497Z,5772.00
2023-05-24T09:03:05.914Z,5366.00
2023-05-24T09:04:05.858Z,5366.00
2023-05-24T09:05:05.750Z,5784.00
2023-05-24T09:06:07.621Z,5988.00
2023-05-24T09:07:06.372Z,5777.00
2023-05-24T09:08:05.718Z,5692.00
2023-05-24T09:09:05.731Z,5587.00
2023-05-24T09:10:05.721Z,5789.00
2023-05-24T09:11:06.377Z,5801.00
2023-05-24T09:12:07.230Z,5971.00
2023-05-24T09:13:05.690Z,6037.00
2023-05-24T09:14:06.380Z,6036.00
2023-05-24T09:15:05.683Z,5786.00
2023-05-24T09:16:05.716Z,5746.00
2023-05-24T09:17:05.634Z,5923.00
2023-05-24T09:18:05.691Z,6038.00
2023-05-24T09:19:05.615Z,5941.00
2023-05-24T09:20:05.636Z,5920.00
2023-05-24T09:21:05.612Z,5950.00
2023-05-24T09:22:05.577Z,6036.00
2023-05-24T09:23:05.580Z,5962.00
2023-05-24T09:24:05.556Z,6004.00
2023-05-24T09:25:05.602Z,6296.00
2023-05-24T09:26:06.360Z,5790.00
2023-05-24T09:27:05.519Z,4716.00
2023-05-24T09:28:05.513Z,4418.00
2023-05-24T09:29:05.493Z,4231.00
2023-05-24T09:30:05.586Z,4296.00
2023-05-24T09:31:07.828Z,4397.00
2023-05-24T09:32:05.528Z,4555.00
2023-05-24T09:33:05.574Z,4776.00
2023-05-24T09:34:05.439Z,4909.00
2023-05-24T09:35:05.558Z,4924.00
2023-05-24T09:36:05.422Z,5032.00
2023-05-24T09:37:05.468Z,5092.00
2023-05-24T09:38:05.427Z,5044.00
2023-05-24T09:39:05.406Z,4878.00
2023-05-24T09:40:05.402Z,4597.00
2023-05-24T09:41:05.412Z,4125.00
2023-05-24T09:42:05.352Z,3433.00
2023-05-24T09:43:05.364Z,3265.00
2023-05-24T09:44:05.344Z,3384.00
2023-05-24T09:45:05.371Z,3422.00
2023-05-24T09:46:05.311Z,3396.00
2023-05-24T09:47:05.389Z,3320.00
2023-05-24T09:48:05.374Z,3107.00
2023-05-24T09:49:05.305Z,3138.00
2023-05-24T09:50:05.308Z,3051.00
2023-05-24T09:51:05.310Z,3361.00
2023-05-24T09:52:05.277Z,3992.00
2023-05-24T09:53:05.252Z,4782.00
2023-05-24T09:54:05.299Z,5321.00
2023-05-24T09:55:05.261Z,5784.00
2023-05-24T09:56:05.243Z,6330.00
2023-05-24T09:57:05.284Z,6134.00
2023-05-24T09:58:05.233Z,5806.00
2023-05-24T09:59:05.209Z,5962.00
2023-05-24T10:00:05.178Z,6863.00
2023-05-24T10:01:05.252Z,7350.00
2023-05-24T10:02:05.149Z,6848.00
2023-05-24T10:03:05.192Z,7290.00
2023-05-24T10:04:07.885Z,7408.00
2023-05-24T10:05:05.792Z,7329.00
2023-05-24T10:06:06.768Z,7810.00
2023-05-24T10:07:07.036Z,8066.00
2023-05-24T10:08:05.092Z,8402.00
2023-05-24T10:09:05.090Z,8200.00
2023-05-24T10:10:07.484Z,7896.00
2023-05-24T10:11:05.106Z,7955.00
2023-05-24T10:12:05.049Z,8558.00
2023-05-24T10:13:05.796Z,8966.00
2023-05-24T10:14:05.697Z,8377.00
2023-05-24T10:15:05.740Z,7290.00
2023-05-24T10:16:05.038Z,6133.00
2023-05-24T10:17:05.093Z,5564.00
2023-05-24T10:18:05.741Z,7384.00
2023-05-24T10:19:05.001Z,8729.00
2023-05-24T10:20:04.994Z,9146.00
2023-05-24T10:21:05.042Z,8552.00
2023-05-24T10:22:04.958Z,8513.00
2023-05-24T10:23:04.979Z,12104.00
2023-05-24T10:24:05.394Z,11230.00
2023-05-24T10:25:04.922Z,11437.00
2023-05-24T10:26:04.915Z,11409.00
2023-05-24T10:27:04.930Z,10689.00
2023-05-24T10:28:04.938Z,11224.00
2023-05-24T10:29:04.882Z,10702.00
2023-05-24T10:30:06.094Z,9650.00
2023-05-24T10:31:05.039Z,8427.00
2023-05-24T10:32:06.355Z,7081.00
2023-05-24T10:33:04.906Z,6197.00
2023-05-24T10:34:08.491Z,5942.00
2023-05-24T10:35:05.508Z,5732.00
2023-05-24T10:36:06.041Z,5850.00
2023-05-24T10:37:06.481Z,5674.00
2023-05-24T10:38:04.813Z,5586.00
2023-05-24T10:39:08.340Z,5640.00
2023-05-24T10:40:04.766Z,5412.00
2023-05-24T10:41:04.774Z,5227.00
2023-05-24T10:42:06.126Z,5412.00
2023-05-24T10:43:05.331Z,5346.00
2023-05-24T10:44:09.181Z,5195.00
2023-05-24T10:45:04.742Z,4743.00
2023-05-24T10:46:04.811Z,4190.00
2023-05-24T10:47:04.707Z,3631.00
2023-05-24T10:48:05.418Z,3314.00
2023-05-24T10:49:07.675Z,3328.00
2023-05-24T10:50:06.291Z,3096.00
2023-05-24T10:51:05.082Z,2901.00
2023-05-24T10:52:05.847Z,2885.00
2023-05-24T10:53:04.662Z,2779.00
2023-05-24T10:54:07.512Z,2848.00
2023-05-24T10:55:05.394Z,2887.00
2023-05-24T10:56:05.808Z,3000.00
2023-05-24T10:57:04.665Z,3320.00
2023-05-24T10:58:04.728Z,3609.00
2023-05-24T10:59:04.704Z,3743.00
2023-05-24T11:00:07.809Z,3839.00
2023-05-24T11:01:04.597Z,3916.00
2023-05-24T11:02:04.671Z,4039.00
2023-05-24T11:03:04.746Z,4290.00
2023-05-24T11:04:08.898Z,4605.00
2023-05-24T11:05:04.738Z,4995.00
2023-05-24T11:06:04.576Z,5143.00
2023-05-24T11:07:06.533Z,5281.00
2023-05-24T11:08:04.480Z,5500.00
2023-05-24T11:09:05.120Z,5824.00
2023-05-24T11:10:04.461Z,6486.00
2023-05-24T11:11:19.226Z,6886.00
2023-05-24T11:12:04.447Z,7112.00
2023-05-24T11:13:04.411Z,7491.00
2023-05-24T11:14:04.411Z,7604.00
2023-05-24T11:15:04.394Z,8130.00
2023-05-24T11:18:25.369Z,9223.00
2023-05-24T11:19:26.138Z,9133.00
2023-05-24T11:20:26.390Z,9171.00
2023-05-24T11:21:26.164Z,8566.00
2023-05-24T11:22:26.147Z,9420.00
2023-05-24T11:23:26.120Z,9543.00
2023-05-24T11:24:26.216Z,9149.00
2023-05-24T11:25:26.092Z,9252.00
2023-05-24T11:26:26.084Z,9169.00
2023-05-24T11:27:26.125Z,9525.00
2023-05-24T11:28:26.132Z,8298.00
2023-05-24T11:29:26.818Z,7305.00
2023-05-24T11:30:26.090Z,6970.00
2023-05-24T11:31:26.083Z,7894.00
2023-05-24T11:32:26.126Z,9055.00
2023-05-24T11:33:26.006Z,9146.00
2023-05-24T11:34:26.062Z,8118.00
2023-05-24T11:35:25.980Z,7315.00
2023-05-24T11:36:26.002Z,7273.00
2023-05-24T11:37:38.570Z,6957.00
2023-05-24T11:38:25.976Z,6342.00
2023-05-24T11:39:25.947Z,5502.00
2023-05-24T11:40:25.957Z,4903.00
2023-05-24T11:41:25.937Z,4928.00
2023-05-24T11:42:25.981Z,4943.00
2023-05-24T11:43:25.921Z,4954.00
2023-05-24T11:44:25.911Z,4963.00
2023-05-24T11:45:25.875Z,4942.00
2023-05-24T11:46:25.974Z,5099.00
2023-05-24T11:47:25.944Z,5514.00
2023-05-24T11:48:25.873Z,5709.00
2023-05-24T11:49:25.851Z,5724.00
2023-05-24T11:50:26.968Z,5648.00
2023-05-24T11:51:25.818Z,5514.00
2023-05-24T11:52:25.867Z,5557.00
2023-05-24T11:53:25.811Z,5804.00
2023-05-24T11:54:25.789Z,6115.00
2023-05-24T11:55:25.781Z,6573.00
2023-05-24T11:56:25.772Z,6496.00
2023-05-24T11:57:25.785Z,6240.00
2023-05-24T11:58:25.775Z,6395.00
2023-05-24T11:59:25.742Z,6917.00
2023-05-24T12:00:25.774Z,7713.00
2023-05-24T12:01:25.753Z,7841.00
2023-05-24T12:02:25.852Z,7421.00
2023-05-24T12:03:25.828Z,7115.00
2023-05-24T12:04:25.846Z,7160.00
2023-05-24T12:05:25.670Z,7493.00
2023-05-24T12:06:25.674Z,8132.00
2023-05-24T12:07:25.644Z,8828.00
2023-05-24T12:08:25.735Z,9140.00
2023-05-24T12:09:25.673Z,9273.00
2023-05-24T12:10:25.628Z,9145.00
2023-05-24T12:11:25.609Z,8971.00
2023-05-24T12:12:33.781Z,8907.00
2023-05-24T12:13:25.611Z,9025.00
2023-05-24T12:14:25.633Z,9250.00
2023-05-24T12:15:25.573Z,9146.00
2023-05-24T12:16:25.624Z,9034.00
2023-05-24T12:17:25.580Z,9150.00
2023-05-24T12:18:25.577Z,9344.00
2023-05-24T12:19:33.023Z,9256.00
2023-05-24T12:20:25.576Z,8971.00
2023-05-24T12:21:25.522Z,8766.00
2023-05-24T12:22:25.509Z,8765.00
2023-05-24T12:23:25.507Z,8905.00
2023-05-24T12:24:25.524Z,9408.00
2023-05-24T12:25:25.469Z,9621.00
2023-05-24T12:26:25.465Z,9871.00
2023-05-24T12:27:25.446Z,9879.00
2023-05-24T12:28:25.442Z,9547.00
2023-05-24T12:29:25.416Z,9460.00
2023-05-24T12:30:25.988Z,8872.00
2023-05-24T12:31:25.431Z,10755.00
2023-05-24T12:32:25.950Z,10016.00
2023-05-24T12:33:25.378Z,10345.00
2023-05-24T12:34:25.411Z,9948.00
2023-05-24T12:35:25.393Z,9646.00
2023-05-24T12:36:25.363Z,9425.00
2023-05-24T12:37:25.385Z,8793.00
2023-05-24T12:38:25.539Z,8129.00
2023-05-24T12:39:25.329Z,7244.00
2023-05-24T12:40:25.325Z,6524.00
2023-05-24T12:41:25.292Z,6084.00
2023-05-24T12:42:25.325Z,5843.00
2023-05-24T12:43:25.289Z,5741.00
2023-05-24T12:44:25.312Z,5679.00
2023-05-24T12:45:25.247Z,5468.00
2023-05-24T12:46:25.271Z,5379.00
2023-05-24T12:47:25.514Z,5424.00
2023-05-24T12:48:25.256Z,5272.00